sensor_id;sensor_type;location;lat;lon;timestamp;temperature;humidity
34099;DHT22;20374;49.474;10.944;2023-09-07T00:01:30;16.40;99.90
34099;DHT22;20374;49.474;10.944;2023-09-07T00:03:56;16.30;99.90
34099;DHT22;20374;49.474;10.944;2023-09-07T00:06:22;16.20;99.90
34099;DHT22;20374;49.474;10.944;2023-09-07T00:08:48;16.20;99.90
34099;DHT22;20374;49.474;10.944;2023-09-07T00:11:14;16.20;99.90
34099;DHT22;20374;49.474;10.944;2023-09-07T00:13:39;16.20;99.90
34099;DHT22;20374;49.474;10.944;2023-09-07T00:16:06;16.30;99.90
34099;DHT22;20374;49.474;10.944;2023-09-07T00:18:33;16.30;99.90
34099;DHT22;20374;49.474;10.944;2023-09-07T00:21:00;16.20;99.90
34099;DHT22;20374;49.474;10.944;2023-09-07T00:23:26;16.20;99.90
34099;DHT22;20374;49.474;10.944;2023-09-07T00:25:52;16.20;99.90
34099;DHT22;20374;49.474;10.944;2023-09-07T00:28:18;16.20;99.90
34099;DHT22;20374;49.474;10.944;2023-09-07T00:30:44;16.20;99.90
34099;DHT22;20374;49.474;10.944;2023-09-07T00:33:10;16.20;99.90
34099;DHT22;20374;49.474;10.944;2023-09-07T00:35:36;16.20;99.90
34099;DHT22;20374;49.474;10.944;2023-09-07T00:38:03;16.10;99.90
34099;DHT22;20374;49.474;10.944;2023-09-07T00:40:29;16.10;99.90
34099;DHT22;20374;49.474;10.944;2023-09-07T00:42:55;16.00;99.90
34099;DHT22;20374;49.474;10.944;2023-09-07T00:45:21;15.90;99.90
34099;DHT22;20374;49.474;10.944;2023-09-07T00:47:48;15.90;99.90
34099;DHT22;20374;49.474;10.944;2023-09-07T00:50:14;15.80;99.90
34099;DHT22;20374;49.474;10.944;2023-09-07T00:52:46;15.70;99.90
34099;DHT22;20374;49.474;10.944;2023-09-07T00:55:13;15.70;99.90
34099;DHT22;20374;49.474;10.944;2023-09-07T00:57:39;15.70;99.90
34099;DHT22;20374;49.474;10.944;2023-09-07T01:00:08;15.70;99.90
34099;DHT22;20374;49.474;10.944;2023-09-07T01:02:35;15.60;99.90
34099;DHT22;20374;49.474;10.944;2023-09-07T01:05:04;15.60;99.90
34099;DHT22;20374;49.474;10.944;2023-09-07T01:10:02;15.70;99.90
34099;DHT22;20374;49.474;10.944;2023-09-07T01:12:29;15.70;99.90
34099;DHT22;20374;49.474;10.944;2023-09-07T01:14:55;15.70;99.90
34099;DHT22;20374;49.474;10.944;2023-09-07T01:17:21;15.60;99.90
34099;DHT22;20374;49.474;10.944;2023-09-07T01:19:48;15.60;99.90
34099;DHT22;20374;49.474;10.944;2023-09-07T01:22:20;15.60;99.90
34099;DHT22;20374;49.474;10.944;2023-09-07T01:24:49;15.60;99.90
34099;DHT22;20374;49.474;10.944;2023-09-07T01:27:16;15.60;99.90
34099;DHT22;20374;49.474;10.944;2023-09-07T01:29:42;15.50;99.90
34099;DHT22;20374;49.474;10.944;2023-09-07T01:32:08;15.50;99.90
34099;DHT22;20374;49.474;10.944;2023-09-07T01:34:36;15.40;99.90
34099;DHT22;20374;49.474;10.944;2023-09-07T01:37:01;15.40;99.90
34099;DHT22;20374;49.474;10.944;2023-09-07T01:39:27;15.40;99.90
34099;DHT22;20374;49.474;10.944;2023-09-07T01:41:54;15.30;99.90
34099;DHT22;20374;49.474;10.944;2023-09-07T01:44:20;15.30;99.90
34099;DHT22;20374;49.474;10.944;2023-09-07T01:46:45;15.30;99.90
34099;DHT22;20374;49.474;10.944;2023-09-07T01:49:11;15.30;99.90
34099;DHT22;20374;49.474;10.944;2023-09-07T01:51:37;15.30;99.90
34099;DHT22;20374;49.474;10.944;2023-09-07T01:54:04;15.30;99.90
34099;DHT22;20374;49.474;10.944;2023-09-07T01:56:31;15.40;99.90
34099;DHT22;20374;49.474;10.944;2023-09-07T01:58:57;15.40;99.90
34099;DHT22;20374;49.474;10.944;2023-09-07T02:01:30;15.40;99.90
34099;DHT22;20374;49.474;10.944;2023-09-07T02:03:56;15.30;99.90
34099;DHT22;20374;49.474;10.944;2023-09-07T02:06:22;15.20;99.90
34099;DHT22;20374;49.474;10.944;2023-09-07T02:08:48;15.20;99.90
34099;DHT22;20374;49.474;10.944;2023-09-07T02:11:15;15.10;99.90
34099;DHT22;20374;49.474;10.944;2023-09-07T02:13:47;15.00;99.90
34099;DHT22;20374;49.474;10.944;2023-09-07T02:16:14;15.00;99.90
34099;DHT22;20374;49.474;10.944;2023-09-07T02:18:39;15.00;99.90
34099;DHT22;20374;49.474;10.944;2023-09-07T02:21:09;15.00;99.90
34099;DHT22;20374;49.474;10.944;2023-09-07T02:23:35;15.00;99.90
34099;DHT22;20374;49.474;10.944;2023-09-07T02:26:04;15.00;99.90
34099;DHT22;20374;49.474;10.944;2023-09-07T02:28:30;14.90;99.90
34099;DHT22;20374;49.474;10.944;2023-09-07T02:31:03;14.90;99.90
34099;DHT22;20374;49.474;10.944;2023-09-07T02:33:29;14.80;99.90
34099;DHT22;20374;49.474;10.944;2023-09-07T02:35:55;14.80;99.90
34099;DHT22;20374;49.474;10.944;2023-09-07T02:38:21;14.70;99.90
34099;DHT22;20374;49.474;10.944;2023-09-07T02:40:47;14.70;99.90
34099;DHT22;20374;49.474;10.944;2023-09-07T02:43:14;14.70;99.90
34099;DHT22;20374;49.474;10.944;2023-09-07T02:45:39;14.70;99.90
34099;DHT22;20374;49.474;10.944;2023-09-07T02:48:06;14.70;99.90
34099;DHT22;20374;49.474;10.944;2023-09-07T02:50:33;14.70;99.90
34099;DHT22;20374;49.474;10.944;2023-09-07T02:53:00;14.70;99.90
34099;DHT22;20374;49.474;10.944;2023-09-07T02:55:28;14.70;99.90
34099;DHT22;20374;49.474;10.944;2023-09-07T02:57:56;14.70;99.90
34099;DHT22;20374;49.474;10.944;2023-09-07T03:00:22;14.60;99.90
34099;DHT22;20374;49.474;10.944;2023-09-07T03:02:49;14.60;99.90
34099;DHT22;20374;49.474;10.944;2023-09-07T03:05:16;14.70;99.90
34099;DHT22;20374;49.474;10.944;2023-09-07T03:07:45;14.70;99.90
34099;DHT22;20374;49.474;10.944;2023-09-07T03:10:11;14.70;99.90
34099;DHT22;20374;49.474;10.944;2023-09-07T03:12:40;14.70;99.90
34099;DHT22;20374;49.474;10.944;2023-09-07T03:15:06;14.70;99.90
34099;DHT22;20374;49.474;10.944;2023-09-07T03:17:33;14.60;99.90
34099;DHT22;20374;49.474;10.944;2023-09-07T03:20:00;14.50;99.90
34099;DHT22;20374;49.474;10.944;2023-09-07T03:22:27;14.40;99.90
34099;DHT22;20374;49.474;10.944;2023-09-07T03:24:55;14.40;99.90
34099;DHT22;20374;49.474;10.944;2023-09-07T03:27:21;14.30;99.90
34099;DHT22;20374;49.474;10.944;2023-09-07T03:29:50;14.20;99.90
34099;DHT22;20374;49.474;10.944;2023-09-07T03:32:19;14.10;99.90
34099;DHT22;20374;49.474;10.944;2023-09-07T03:34:44;14.10;99.90
34099;DHT22;20374;49.474;10.944;2023-09-07T03:37:10;14.00;99.90
34099;DHT22;20374;49.474;10.944;2023-09-07T03:39:37;14.00;99.90
34099;DHT22;20374;49.474;10.944;2023-09-07T03:42:04;14.00;99.90
34099;DHT22;20374;49.474;10.944;2023-09-07T03:44:30;14.00;99.90
34099;DHT22;20374;49.474;10.944;2023-09-07T03:46:56;14.00;99.90
34099;DHT22;20374;49.474;10.944;2023-09-07T03:49:22;14.00;99.90
34099;DHT22;20374;49.474;10.944;2023-09-07T03:51:48;14.00;99.90
34099;DHT22;20374;49.474;10.944;2023-09-07T03:54:14;13.90;99.90
34099;DHT22;20374;49.474;10.944;2023-09-07T03:56:39;13.90;99.90
34099;DHT22;20374;49.474;10.944;2023-09-07T03:59:07;13.90;99.90
34099;DHT22;20374;49.474;10.944;2023-09-07T04:01:34;13.90;99.90
34099;DHT22;20374;49.474;10.944;2023-09-07T04:04:00;13.80;99.90
34099;DHT22;20374;49.474;10.944;2023-09-07T04:06:26;13.80;99.90
34099;DHT22;20374;49.474;10.944;2023-09-07T04:08:52;13.80;99.90
34099;DHT22;20374;49.474;10.944;2023-09-07T04:11:18;13.70;99.90
34099;DHT22;20374;49.474;10.944;2023-09-07T04:13:44;13.70;99.90
34099;DHT22;20374;49.474;10.944;2023-09-07T04:16:10;13.70;99.90
34099;DHT22;20374;49.474;10.944;2023-09-07T04:18:36;13.60;99.90
34099;DHT22;20374;49.474;10.944;2023-09-07T04:21:06;13.60;99.90
34099;DHT22;20374;49.474;10.944;2023-09-07T04:23:32;13.50;99.90
34099;DHT22;20374;49.474;10.944;2023-09-07T04:26:06;13.50;99.90
34099;DHT22;20374;49.474;10.944;2023-09-07T04:28:32;13.50;99.90
34099;DHT22;20374;49.474;10.944;2023-09-07T04:30:58;13.50;99.90
34099;DHT22;20374;49.474;10.944;2023-09-07T04:33:24;13.50;99.90
34099;DHT22;20374;49.474;10.944;2023-09-07T04:35:50;13.50;99.90
34099;DHT22;20374;49.474;10.944;2023-09-07T04:38:16;13.60;99.90
34099;DHT22;20374;49.474;10.944;2023-09-07T04:40:42;13.60;99.90
34099;DHT22;20374;49.474;10.944;2023-09-07T04:43:08;13.60;99.90
34099;DHT22;20374;49.474;10.944;2023-09-07T04:45:34;13.70;99.90
34099;DHT22;20374;49.474;10.944;2023-09-07T04:48:00;13.70;99.90
34099;DHT22;20374;49.474;10.944;2023-09-07T04:50:26;13.70;99.90
34099;DHT22;20374;49.474;10.944;2023-09-07T04:52:52;13.70;99.90
34099;DHT22;20374;49.474;10.944;2023-09-07T04:55:18;13.70;99.90
34099;DHT22;20374;49.474;10.944;2023-09-07T04:57:44;13.70;99.90
34099;DHT22;20374;49.474;10.944;2023-09-07T05:00:11;13.70;99.90
34099;DHT22;20374;49.474;10.944;2023-09-07T05:02:37;13.70;99.90
34099;DHT22;20374;49.474;10.944;2023-09-07T05:05:07;13.70;99.90
34099;DHT22;20374;49.474;10.944;2023-09-07T05:07:33;13.60;99.90
34099;DHT22;20374;49.474;10.944;2023-09-07T05:10:00;13.70;99.90
34099;DHT22;20374;49.474;10.944;2023-09-07T05:12:26;13.70;99.90
34099;DHT22;20374;49.474;10.944;2023-09-07T05:14:52;13.80;99.90
34099;DHT22;20374;49.474;10.944;2023-09-07T05:17:18;13.80;99.90
34099;DHT22;20374;49.474;10.944;2023-09-07T05:19:44;13.80;99.90
34099;DHT22;20374;49.474;10.944;2023-09-07T05:22:10;13.90;99.90
34099;DHT22;20374;49.474;10.944;2023-09-07T05:24:40;13.90;99.90
34099;DHT22;20374;49.474;10.944;2023-09-07T05:27:06;14.00;99.90
34099;DHT22;20374;49.474;10.944;2023-09-07T05:29:35;14.10;99.90
34099;DHT22;20374;49.474;10.944;2023-09-07T05:32:01;14.10;99.90
34099;DHT22;20374;49.474;10.944;2023-09-07T05:34:28;14.20;99.90
34099;DHT22;20374;49.474;10.944;2023-09-07T05:36:55;14.30;99.90
34099;DHT22;20374;49.474;10.944;2023-09-07T05:39:21;14.60;99.90
34099;DHT22;20374;49.474;10.944;2023-09-07T05:41:49;15.00;99.90
34099;DHT22;20374;49.474;10.944;2023-09-07T05:44:15;15.40;99.90
34099;DHT22;20374;49.474;10.944;2023-09-07T05:46:42;15.70;99.90
34099;DHT22;20374;49.474;10.944;2023-09-07T05:49:08;15.90;99.90
34099;DHT22;20374;49.474;10.944;2023-09-07T05:51:34;16.20;99.90
34099;DHT22;20374;49.474;10.944;2023-09-07T05:54:01;16.30;99.90
34099;DHT22;20374;49.474;10.944;2023-09-07T05:56:28;16.50;99.90
34099;DHT22;20374;49.474;10.944;2023-09-07T05:58:56;16.60;99.90
34099;DHT22;20374;49.474;10.944;2023-09-07T06:01:22;16.70;99.90
34099;DHT22;20374;49.474;10.944;2023-09-07T06:03:47;16.70;99.90
34099;DHT22;20374;49.474;10.944;2023-09-07T06:06:13;17.10;99.90
34099;DHT22;20374;49.474;10.944;2023-09-07T06:08:39;17.90;99.90
34099;DHT22;20374;49.474;10.944;2023-09-07T06:11:06;18.60;99.90
34099;DHT22;20374;49.474;10.944;2023-09-07T06:13:32;18.80;99.90
34099;DHT22;20374;49.474;10.944;2023-09-07T06:15:58;19.10;99.90
34099;DHT22;20374;49.474;10.944;2023-09-07T06:18:26;19.80;99.90
34099;DHT22;20374;49.474;10.944;2023-09-07T06:20:52;21.00;99.90
34099;DHT22;20374;49.474;10.944;2023-09-07T06:23:18;22.40;99.90
34099;DHT22;20374;49.474;10.944;2023-09-07T06:25:44;23.40;99.90
34099;DHT22;20374;49.474;10.944;2023-09-07T06:28:10;23.90;99.00
34099;DHT22;20374;49.474;10.944;2023-09-07T06:30:36;23.70;98.80
34099;DHT22;20374;49.474;10.944;2023-09-07T06:33:02;23.00;98.80
34099;DHT22;20374;49.474;10.944;2023-09-07T06:35:28;22.10;99.90
34099;DHT22;20374;49.474;10.944;2023-09-07T06:37:54;21.30;99.90
34099;DHT22;20374;49.474;10.944;2023-09-07T06:40:23;21.20;99.90
34099;DHT22;20374;49.474;10.944;2023-09-07T06:42:53;21.40;99.90
34099;DHT22;20374;49.474;10.944;2023-09-07T06:45:21;21.20;99.90
34099;DHT22;20374;49.474;10.944;2023-09-07T06:47:50;21.00;99.90
34099;DHT22;20374;49.474;10.944;2023-09-07T06:50:17;20.90;99.90
34099;DHT22;20374;49.474;10.944;2023-09-07T06:52:42;20.80;99.90
34099;DHT22;20374;49.474;10.944;2023-09-07T06:55:08;20.90;99.90
34099;DHT22;20374;49.474;10.944;2023-09-07T06:57:35;20.70;99.90
34099;DHT22;20374;49.474;10.944;2023-09-07T07:00:03;20.70;99.90
34099;DHT22;20374;49.474;10.944;2023-09-07T07:02:33;21.10;99.90
34099;DHT22;20374;49.474;10.944;2023-09-07T07:05:01;21.40;99.90
34099;DHT22;20374;49.474;10.944;2023-09-07T07:07:28;21.50;99.90
34099;DHT22;20374;49.474;10.944;2023-09-07T07:09:54;21.90;99.90
34099;DHT22;20374;49.474;10.944;2023-09-07T07:12:20;22.50;99.90
34099;DHT22;20374;49.474;10.944;2023-09-07T07:14:47;22.90;99.10
34099;DHT22;20374;49.474;10.944;2023-09-07T07:17:13;23.30;98.80
34099;DHT22;20374;49.474;10.944;2023-09-07T07:19:39;23.80;98.00
34099;DHT22;20374;49.474;10.944;2023-09-07T07:22:05;24.00;97.30
34099;DHT22;20374;49.474;10.944;2023-09-07T07:24:32;23.50;97.70
34099;DHT22;20374;49.474;10.944;2023-09-07T07:26:59;22.60;98.70
34099;DHT22;20374;49.474;10.944;2023-09-07T07:29:25;22.10;99.90
34099;DHT22;20374;49.474;10.944;2023-09-07T07:31:52;22.20;99.90
34099;DHT22;20374;49.474;10.944;2023-09-07T07:34:18;22.40;99.60
34099;DHT22;20374;49.474;10.944;2023-09-07T07:36:44;22.20;99.90
34099;DHT22;20374;49.474;10.944;2023-09-07T07:39:10;22.00;99.90
34099;DHT22;20374;49.474;10.944;2023-09-07T07:41:36;21.80;99.90
34099;DHT22;20374;49.474;10.944;2023-09-07T07:44:04;21.60;99.90
34099;DHT22;20374;49.474;10.944;2023-09-07T07:46:30;21.50;99.90
34099;DHT22;20374;49.474;10.944;2023-09-07T07:48:56;21.70;99.90
34099;DHT22;20374;49.474;10.944;2023-09-07T07:51:22;22.20;99.90
34099;DHT22;20374;49.474;10.944;2023-09-07T07:53:50;23.00;99.90
34099;DHT22;20374;49.474;10.944;2023-09-07T07:56:18;23.70;98.10
34099;DHT22;20374;49.474;10.944;2023-09-07T07:58:46;23.70;97.70
34099;DHT22;20374;49.474;10.944;2023-09-07T08:01:17;23.70;98.20
34099;DHT22;20374;49.474;10.944;2023-09-07T08:03:45;23.80;98.00
34099;DHT22;20374;49.474;10.944;2023-09-07T08:06:11;24.20;97.60
34099;DHT22;20374;49.474;10.944;2023-09-07T08:08:39;25.20;95.80
34099;DHT22;20374;49.474;10.944;2023-09-07T08:11:08;25.50;94.10
34099;DHT22;20374;49.474;10.944;2023-09-07T08:13:37;26.20;93.10
34099;DHT22;20374;49.474;10.944;2023-09-07T08:16:04;27.10;90.90
34099;DHT22;20374;49.474;10.944;2023-09-07T08:18:33;27.70;88.50
34099;DHT22;20374;49.474;10.944;2023-09-07T08:21:00;27.80;87.80
34099;DHT22;20374;49.474;10.944;2023-09-07T08:23:26;27.10;90.40
34099;DHT22;20374;49.474;10.944;2023-09-07T08:25:53;26.20;90.80
34099;DHT22;20374;49.474;10.944;2023-09-07T08:28:21;25.60;92.20
34099;DHT22;20374;49.474;10.944;2023-09-07T08:30:51;24.80;93.00
34099;DHT22;20374;49.474;10.944;2023-09-07T08:33:22;24.20;93.80
34099;DHT22;20374;49.474;10.944;2023-09-07T08:35:52;23.90;94.70
34099;DHT22;20374;49.474;10.944;2023-09-07T08:38:18;23.70;95.40
34099;DHT22;20374;49.474;10.944;2023-09-07T08:40:48;23.80;94.80
34099;DHT22;20374;49.474;10.944;2023-09-07T08:43:15;24.30;93.70
34099;DHT22;20374;49.474;10.944;2023-09-07T08:45:47;25.30;92.80
34099;DHT22;20374;49.474;10.944;2023-09-07T08:48:15;25.80;92.10
34099;DHT22;20374;49.474;10.944;2023-09-07T08:50:45;25.80;92.30
34099;DHT22;20374;49.474;10.944;2023-09-07T08:53:18;25.30;92.50
34099;DHT22;20374;49.474;10.944;2023-09-07T08:55:45;24.90;93.30
34099;DHT22;20374;49.474;10.944;2023-09-07T08:58:11;24.60;93.30
34099;DHT22;20374;49.474;10.944;2023-09-07T09:00:37;24.20;93.90
34099;DHT22;20374;49.474;10.944;2023-09-07T09:03:04;24.10;94.60
34099;DHT22;20374;49.474;10.944;2023-09-07T09:05:30;24.20;95.10
34099;DHT22;20374;49.474;10.944;2023-09-07T09:08:01;24.40;94.40
34099;DHT22;20374;49.474;10.944;2023-09-07T09:10:28;25.00;94.00
34099;DHT22;20374;49.474;10.944;2023-09-07T09:12:54;25.40;93.20
34099;DHT22;20374;49.474;10.944;2023-09-07T09:15:21;25.20;93.10
34099;DHT22;20374;49.474;10.944;2023-09-07T09:17:50;24.90;93.10
34099;DHT22;20374;49.474;10.944;2023-09-07T09:20:26;24.50;93.40
34099;DHT22;20374;49.474;10.944;2023-09-07T09:22:55;24.20;93.90
34099;DHT22;20374;49.474;10.944;2023-09-07T09:25:22;24.20;94.20
34099;DHT22;20374;49.474;10.944;2023-09-07T09:27:48;24.20;94.00
34099;DHT22;20374;49.474;10.944;2023-09-07T09:30:14;24.20;93.40
34099;DHT22;20374;49.474;10.944;2023-09-07T09:32:43;24.10;93.90
34099;DHT22;20374;49.474;10.944;2023-09-07T09:35:09;24.00;94.80
34099;DHT22;20374;49.474;10.944;2023-09-07T09:37:48;23.90;94.20
34099;DHT22;20374;49.474;10.944;2023-09-07T09:40:17;23.90;94.00
34099;DHT22;20374;49.474;10.944;2023-09-07T09:42:44;23.90;94.30
34099;DHT22;20374;49.474;10.944;2023-09-07T09:45:11;24.10;94.40
34099;DHT22;20374;49.474;10.944;2023-09-07T09:47:39;24.20;93.70
34099;DHT22;20374;49.474;10.944;2023-09-07T09:50:08;24.20;93.50
34099;DHT22;20374;49.474;10.944;2023-09-07T09:52:35;24.20;94.00
34099;DHT22;20374;49.474;10.944;2023-09-07T09:55:06;24.20;93.90
34099;DHT22;20374;49.474;10.944;2023-09-07T09:57:36;24.20;94.70
34099;DHT22;20374;49.474;10.944;2023-09-07T10:00:04;24.10;94.10
34099;DHT22;20374;49.474;10.944;2023-09-07T10:03:04;24.00;93.90
34099;DHT22;20374;49.474;10.944;2023-09-07T10:05:31;24.00;94.20
34099;DHT22;20374;49.474;10.944;2023-09-07T10:08:13;24.00;93.60
34099;DHT22;20374;49.474;10.944;2023-09-07T10:10:41;24.00;94.40
34099;DHT22;20374;49.474;10.944;2023-09-07T10:13:07;24.20;93.90
34099;DHT22;20374;49.474;10.944;2023-09-07T10:15:34;24.30;93.70
34099;DHT22;20374;49.474;10.944;2023-09-07T10:18:16;24.30;93.50
34099;DHT22;20374;49.474;10.944;2023-09-07T10:20:58;24.50;93.60
34099;DHT22;20374;49.474;10.944;2023-09-07T10:23:44;24.60;93.00
34099;DHT22;20374;49.474;10.944;2023-09-07T10:26:17;24.70;94.20
34099;DHT22;20374;49.474;10.944;2023-09-07T10:28:44;24.70;94.70
34099;DHT22;20374;49.474;10.944;2023-09-07T10:31:17;24.70;95.30
34099;DHT22;20374;49.474;10.944;2023-09-07T10:33:44;24.70;94.80
34099;DHT22;20374;49.474;10.944;2023-09-07T10:36:25;24.80;94.60
34099;DHT22;20374;49.474;10.944;2023-09-07T10:38:51;24.90;94.70
34099;DHT22;20374;49.474;10.944;2023-09-07T10:41:21;25.00;94.30
34099;DHT22;20374;49.474;10.944;2023-09-07T10:43:49;25.00;93.20
34099;DHT22;20374;49.474;10.944;2023-09-07T10:46:18;25.00;92.80
34099;DHT22;20374;49.474;10.944;2023-09-07T10:48:45;25.00;92.60
34099;DHT22;20374;49.474;10.944;2023-09-07T10:51:14;25.00;93.20
34099;DHT22;20374;49.474;10.944;2023-09-07T10:53:39;25.10;92.50
34099;DHT22;20374;49.474;10.944;2023-09-07T10:56:06;25.20;92.00
34099;DHT22;20374;49.474;10.944;2023-09-07T10:58:34;25.20;92.00
34099;DHT22;20374;49.474;10.944;2023-09-07T11:01:01;25.40;91.90
34099;DHT22;20374;49.474;10.944;2023-09-07T11:03:29;25.40;92.00
34099;DHT22;20374;49.474;10.944;2023-09-07T11:06:02;25.50;91.50
34099;DHT22;20374;49.474;10.944;2023-09-07T11:08:32;25.60;91.50
34099;DHT22;20374;49.474;10.944;2023-09-07T11:10:59;25.70;88.60
34099;DHT22;20374;49.474;10.944;2023-09-07T11:13:26;25.80;86.60
34099;DHT22;20374;49.474;10.944;2023-09-07T11:15:56;25.90;86.40
34099;DHT22;20374;49.474;10.944;2023-09-07T11:18:24;26.00;84.80
34099;DHT22;20374;49.474;10.944;2023-09-07T11:20:51;25.90;87.10
34099;DHT22;20374;49.474;10.944;2023-09-07T11:23:18;26.00;84.50
34099;DHT22;20374;49.474;10.944;2023-09-07T11:25:45;26.00;80.80
34099;DHT22;20374;49.474;10.944;2023-09-07T11:28:11;26.00;81.90
34099;DHT22;20374;49.474;10.944;2023-09-07T11:30:48;26.00;82.30
34099;DHT22;20374;49.474;10.944;2023-09-07T11:33:15;26.00;82.40
34099;DHT22;20374;49.474;10.944;2023-09-07T11:35:41;26.10;82.60
34099;DHT22;20374;49.474;10.944;2023-09-07T11:38:07;26.10;82.50
34099;DHT22;20374;49.474;10.944;2023-09-07T11:40:36;26.30;82.70
34099;DHT22;20374;49.474;10.944;2023-09-07T11:43:02;26.50;81.80
34099;DHT22;20374;49.474;10.944;2023-09-07T11:45:28;26.50;81.50
34099;DHT22;20374;49.474;10.944;2023-09-07T11:47:54;26.50;82.20
34099;DHT22;20374;49.474;10.944;2023-09-07T11:50:23;26.60;83.40
34099;DHT22;20374;49.474;10.944;2023-09-07T11:52:50;26.70;82.30
34099;DHT22;20374;49.474;10.944;2023-09-07T11:55:17;26.70;83.10
34099;DHT22;20374;49.474;10.944;2023-09-07T11:57:43;26.90;81.70
34099;DHT22;20374;49.474;10.944;2023-09-07T12:00:10;27.20;79.60
34099;DHT22;20374;49.474;10.944;2023-09-07T12:02:40;27.40;76.90
34099;DHT22;20374;49.474;10.944;2023-09-07T12:05:06;27.50;75.80
34099;DHT22;20374;49.474;10.944;2023-09-07T12:07:38;27.50;77.10
34099;DHT22;20374;49.474;10.944;2023-09-07T12:10:04;27.60;76.10
34099;DHT22;20374;49.474;10.944;2023-09-07T12:12:30;27.70;75.30
34099;DHT22;20374;49.474;10.944;2023-09-07T12:14:56;27.90;75.30
34099;DHT22;20374;49.474;10.944;2023-09-07T12:17:23;27.90;75.50
34099;DHT22;20374;49.474;10.944;2023-09-07T12:19:50;28.00;78.30
34099;DHT22;20374;49.474;10.944;2023-09-07T12:22:16;27.90;75.70
34099;DHT22;20374;49.474;10.944;2023-09-07T12:24:42;27.90;75.40
34099;DHT22;20374;49.474;10.944;2023-09-07T12:27:08;27.80;76.30
34099;DHT22;20374;49.474;10.944;2023-09-07T12:29:33;27.80;76.90
34099;DHT22;20374;49.474;10.944;2023-09-07T12:31:59;27.70;74.40
34099;DHT22;20374;49.474;10.944;2023-09-07T12:34:25;27.80;74.80
34099;DHT22;20374;49.474;10.944;2023-09-07T12:36:51;27.90;76.00
34099;DHT22;20374;49.474;10.944;2023-09-07T12:39:17;27.90;75.80
34099;DHT22;20374;49.474;10.944;2023-09-07T12:41:43;28.10;76.90
34099;DHT22;20374;49.474;10.944;2023-09-07T12:44:08;28.40;75.40
34099;DHT22;20374;49.474;10.944;2023-09-07T12:46:34;28.50;74.10
34099;DHT22;20374;49.474;10.944;2023-09-07T12:49:03;28.70;73.30
34099;DHT22;20374;49.474;10.944;2023-09-07T12:51:30;28.90;73.20
34099;DHT22;20374;49.474;10.944;2023-09-07T12:53:56;29.00;72.80
34099;DHT22;20374;49.474;10.944;2023-09-07T12:56:22;29.20;74.20
34099;DHT22;20374;49.474;10.944;2023-09-07T12:58:48;29.30;71.40
34099;DHT22;20374;49.474;10.944;2023-09-07T13:01:15;29.60;70.60
34099;DHT22;20374;49.474;10.944;2023-09-07T13:03:42;29.90;71.70
34099;DHT22;20374;49.474;10.944;2023-09-07T13:06:08;30.10;70.40
34099;DHT22;20374;49.474;10.944;2023-09-07T13:08:34;30.80;71.20
34099;DHT22;20374;49.474;10.944;2023-09-07T13:11:00;31.40;69.60
34099;DHT22;20374;49.474;10.944;2023-09-07T13:13:26;32.10;68.10
34099;DHT22;20374;49.474;10.944;2023-09-07T13:15:57;32.60;66.20
34099;DHT22;20374;49.474;10.944;2023-09-07T13:18:23;32.80;65.10
34099;DHT22;20374;49.474;10.944;2023-09-07T13:20:50;33.20;65.40
34099;DHT22;20374;49.474;10.944;2023-09-07T13:23:17;33.60;64.50
34099;DHT22;20374;49.474;10.944;2023-09-07T13:25:43;34.20;64.40
34099;DHT22;20374;49.474;10.944;2023-09-07T13:28:09;34.90;63.10
34099;DHT22;20374;49.474;10.944;2023-09-07T13:30:35;35.40;59.90
34099;DHT22;20374;49.474;10.944;2023-09-07T13:33:01;35.40;58.70
34099;DHT22;20374;49.474;10.944;2023-09-07T13:35:27;35.40;58.70
34099;DHT22;20374;49.474;10.944;2023-09-07T13:37:53;35.40;58.90
34099;DHT22;20374;49.474;10.944;2023-09-07T13:40:19;35.70;58.80
34099;DHT22;20374;49.474;10.944;2023-09-07T13:42:50;35.70;58.50
34099;DHT22;20374;49.474;10.944;2023-09-07T13:45:16;35.70;58.60
34099;DHT22;20374;49.474;10.944;2023-09-07T13:47:41;36.30;57.10
34099;DHT22;20374;49.474;10.944;2023-09-07T13:50:07;36.50;55.90
34099;DHT22;20374;49.474;10.944;2023-09-07T13:52:34;35.80;57.40
34099;DHT22;20374;49.474;10.944;2023-09-07T13:55:00;35.40;57.30
34099;DHT22;20374;49.474;10.944;2023-09-07T13:57:26;35.40;57.40
34099;DHT22;20374;49.474;10.944;2023-09-07T13:59:51;35.20;57.80
34099;DHT22;20374;49.474;10.944;2023-09-07T14:02:17;35.00;57.30
34099;DHT22;20374;49.474;10.944;2023-09-07T14:04:43;35.00;56.70
34099;DHT22;20374;49.474;10.944;2023-09-07T14:07:09;35.10;56.50
34099;DHT22;20374;49.474;10.944;2023-09-07T14:09:35;35.10;57.90
34099;DHT22;20374;49.474;10.944;2023-09-07T14:12:01;35.40;57.70
34099;DHT22;20374;49.474;10.944;2023-09-07T14:14:27;35.60;56.30
34099;DHT22;20374;49.474;10.944;2023-09-07T14:16:52;35.50;56.30
34099;DHT22;20374;49.474;10.944;2023-09-07T14:19:22;35.50;56.50
34099;DHT22;20374;49.474;10.944;2023-09-07T14:21:48;35.80;57.10
34099;DHT22;20374;49.474;10.944;2023-09-07T14:24:14;35.70;55.30
34099;DHT22;20374;49.474;10.944;2023-09-07T14:26:40;35.70;55.20
34099;DHT22;20374;49.474;10.944;2023-09-07T14:29:06;35.60;56.00
34099;DHT22;20374;49.474;10.944;2023-09-07T14:31:31;35.40;56.90
34099;DHT22;20374;49.474;10.944;2023-09-07T14:33:57;35.50;56.40
34099;DHT22;20374;49.474;10.944;2023-09-07T14:36:23;35.30;55.70
34099;DHT22;20374;49.474;10.944;2023-09-07T14:38:49;35.20;56.20
34099;DHT22;20374;49.474;10.944;2023-09-07T14:41:15;35.60;56.70
34099;DHT22;20374;49.474;10.944;2023-09-07T14:43:48;35.60;56.40
34099;DHT22;20374;49.474;10.944;2023-09-07T14:46:15;35.40;55.10
34099;DHT22;20374;49.474;10.944;2023-09-07T14:48:41;35.20;55.80
34099;DHT22;20374;49.474;10.944;2023-09-07T14:51:08;34.90;55.90
34099;DHT22;20374;49.474;10.944;2023-09-07T14:53:33;34.60;55.50
34099;DHT22;20374;49.474;10.944;2023-09-07T14:55:59;34.20;55.40
34099;DHT22;20374;49.474;10.944;2023-09-07T14:58:25;33.90;55.40
34099;DHT22;20374;49.474;10.944;2023-09-07T15:00:51;33.80;56.60
34099;DHT22;20374;49.474;10.944;2023-09-07T15:03:17;33.70;57.30
34099;DHT22;20374;49.474;10.944;2023-09-07T15:05:43;33.50;56.40
34099;DHT22;20374;49.474;10.944;2023-09-07T15:08:08;33.50;57.60
34099;DHT22;20374;49.474;10.944;2023-09-07T15:10:34;33.00;56.80
34099;DHT22;20374;49.474;10.944;2023-09-07T15:13:01;32.60;57.80
34099;DHT22;20374;49.474;10.944;2023-09-07T15:15:31;32.00;58.70
34099;DHT22;20374;49.474;10.944;2023-09-07T15:18:02;31.70;58.40